Time;durP1;ratioP1;P1;durP2;ratioP2;P2;SDS_P1;SDS_P2;PMS_P1;PMS_P2;Temp;Humidity;BMP_temperature;BMP_pressure;BME280_temperature;BME280_humidity;BME280_pressure;Samples;Min_cycle;Max_cycle;Signal;HPM_P1;HPM_P2
2022/05/22 00:01:52;;;;;;;5.45;4.25;;;;;;;21.33;73.94;94226.00;5073115;28;20558;-63
2022/05/22 00:04:17;;;;;;;6.13;4.13;;;;;;;21.27;74.04;94219.06;5071634;28;20209;-59
2022/05/22 00:06:43;;;;;;;6.18;4.55;;;;;;;21.26;73.83;94227.84;5071798;28;20168;-60
2022/05/22 00:09:08;;;;;;;6.72;4.13;;;;;;;21.30;73.59;94228.22;5073208;28;20201;-63
2022/05/22 00:11:34;;;;;;;8.57;4.30;;;;;;;21.33;73.60;94233.75;5073090;28;20314;-61
2022/05/22 00:13:59;;;;;;;7.40;4.30;;;;;;;21.29;73.58;94224.06;5073329;28;20201;-61
2022/05/22 00:16:37;;;;;;;4.63;4.07;;;;;;;21.28;73.46;94230.22;5071485;28;20291;-62
2022/05/22 00:19:09;;;;;;;4.50;3.83;;;;;;;21.24;73.62;94235.00;5073287;28;20220;-59
2022/05/22 00:21:35;;;;;;;5.00;4.05;;;;;;;21.24;73.80;94219.50;5072754;28;20724;-62
2022/05/22 00:24:01;;;;;;;5.78;3.70;;;;;;;21.20;73.91;94218.31;5072531;28;20193;-61
2022/05/22 00:26:27;;;;;;;6.68;4.35;;;;;;;21.23;73.88;94214.53;5072738;28;20189;-62
2022/05/22 00:28:52;;;;;;;5.35;3.72;;;;;;;21.14;74.23;94213.97;5073524;28;20261;-60
2022/05/22 00:31:18;;;;;;;4.50;4.10;;;;;;;21.09;74.31;94202.66;5072653;28;20177;-60
2022/05/22 00:33:43;;;;;;;7.65;4.10;;;;;;;21.19;73.97;94214.13;5072843;28;20205;-62
2022/05/22 00:36:09;;;;;;;5.28;4.07;;;;;;;21.16;73.85;94208.56;5071619;28;20196;-61
2022/05/22 00:38:35;;;;;;;4.70;4.05;;;;;;;21.17;73.79;94216.13;5072377;28;20201;-59
2022/05/22 00:41:01;;;;;;;6.47;4.15;;;;;;;21.12;74.08;94208.19;5072713;28;20187;-63
2022/05/22 00:43:34;;;;;;;4.38;3.72;;;;;;;21.13;73.93;94219.34;5072659;28;20223;-60
2022/05/22 00:46:01;;;;;;;4.72;3.80;;;;;;;21.15;73.94;94217.34;5072373;28;20558;-60
2022/05/22 00:48:27;;;;;;;5.65;3.85;;;;;;;21.13;73.75;94222.69;5072714;28;20560;-61
2022/05/22 00:50:56;;;;;;;8.35;4.00;;;;;;;21.15;73.81;94225.88;5072299;28;20285;-61
2022/05/22 00:53:24;;;;;;;6.93;3.58;;;;;;;21.15;73.74;94225.88;5072545;28;20666;-61
2022/05/22 00:55:50;;;;;;;5.28;3.72;;;;;;;21.10;73.95;94217.16;5072036;28;20197;-60
2022/05/22 00:58:21;;;;;;;4.28;3.88;;;;;;;21.08;73.75;94227.69;5072372;28;20200;-61
2022/05/22 01:00:47;;;;;;;6.97;3.83;;;;;;;21.06;73.91;94209.00;5072055;28;20169;-59
2022/05/22 01:03:28;;;;;;;4.03;3.58;;;;;;;21.07;74.44;94212.41;5072223;28;20255;-61
2022/05/22 01:05:57;;;;;;;6.13;3.53;;;;;;;21.05;74.29;94204.84;5070480;28;20191;-62
2022/05/22 01:08:23;;;;;;;5.85;4.13;;;;;;;20.99;74.66;94199.69;5071850;28;20232;-60
2022/05/22 01:11:05;;;;;;;6.72;4.03;;;;;;;20.95;74.95;94201.09;5072121;28;20676;-59
2022/05/22 01:13:39;;;;;;;5.43;3.80;;;;;;;20.92;75.17;94197.09;5072689;28;20203;-59
2022/05/22 01:16:11;;;;;;;4.97;4.20;;;;;;;20.93;75.30;94204.66;5071957;28;20214;-60
2022/05/22 01:18:41;;;;;;;6.20;3.90;;;;;;;20.85;75.58;94191.94;5072296;28;20215;-59
2022/05/22 01:21:12;;;;;;;5.72;3.90;;;;;;;20.91;75.33;94209.22;5070576;28;20185;-59
2022/05/22 01:23:37;;;;;;;7.70;3.50;;;;;;;20.97;75.34;94204.25;5072296;28;20686;-62
2022/05/22 01:26:03;;;;;;;8.25;3.90;;;;;;;20.85;75.34;94204.06;5071780;28;20192;-62
2022/05/22 01:28:28;;;;;;;5.18;3.92;;;;;;;20.87;75.07;94210.63;5072163;28;20197;-58
2022/05/22 01:30:54;;;;;;;3.90;3.50;;;;;;;20.89;74.98;94202.66;5071764;28;20173;-60
2022/05/22 01:33:19;;;;;;;4.05;3.45;;;;;;;20.79;74.65;94208.25;5072128;28;20189;-60
2022/05/22 01:35:45;;;;;;;4.38;3.70;;;;;;;20.74;74.64;94205.50;5072008;28;20209;-61
2022/05/22 01:38:10;;;;;;;6.93;3.58;;;;;;;20.76;74.61;94210.47;5072279;28;20189;-63
2022/05/22 01:40:36;;;;;;;4.00;3.58;;;;;;;20.77;73.96;94214.63;5072084;28;20173;-61
2022/05/22 01:43:02;;;;;;;3.97;3.58;;;;;;;20.71;74.31;94207.69;5071798;28;20609;-59
2022/05/22 01:45:27;;;;;;;6.57;3.45;;;;;;;20.63;73.61;94213.06;5071521;28;20181;-59
2022/05/22 01:47:53;;;;;;;6.20;3.22;;;;;;;20.59;73.42;94227.38;5073884;28;20196;-61
2022/05/22 01:50:20;;;;;;;4.60;3.00;;;;;;;20.60;72.27;94237.53;5075727;28;20494;-61
2022/05/22 01:52:46;;;;;;;7.65;3.50;;;;;;;20.60;71.34;94240.13;5075731;28;20200;-59
2022/05/22 01:55:13;;;;;;;4.80;3.13;;;;;;;20.60;70.67;94247.88;5075621;28;20196;-59
2022/05/22 01:57:39;;;;;;;6.75;3.60;;;;;;;20.64;68.84;94271.50;5075998;28;20775;-60
2022/05/22 02:00:09;;;;;;;3.58;3.22;;;;;;;20.65;67.40;94289.38;5075472;28;20180;-61
2022/05/22 02:02:34;;;;;;;3.55;2.90;;;;;;;20.62;66.28;94294.16;5075483;28;20296;-61
2022/05/22 02:05:02;;;;;;;3.60;2.83;;;;;;;20.65;66.31;94299.72;5075440;28;20201;-61
2022/05/22 02:10:12;;;;;;;5.75;2.67;;;;;;;20.63;63.34;94327.53;5075351;28;20176;-60
2022/05/22 02:12:37;;;;;;;4.03;2.83;;;;;;;20.64;61.81;94351.59;5075466;28;20662;-60
2022/05/22 02:15:03;;;;;;;3.63;2.60;;;;;;;20.68;60.40;94361.34;5075349;28;20213;-59
2022/05/22 02:17:29;;;;;;;5.53;2.63;;;;;;;20.68;59.49;94366.50;5074876;28;20538;-61
2022/05/22 02:19:54;;;;;;;5.57;2.22;;;;;;;20.69;58.98;94373.25;5075333;28;20200;-61
2022/05/22 02:22:20;;;;;;;4.28;2.47;;;;;;;20.67;58.31;94370.06;5075223;28;20212;-63
2022/05/22 02:24:50;;;;;;;5.53;2.70;;;;;;;20.62;57.56;94385.38;5073824;28;20195;-62
2022/05/22 02:27:22;;;;;;;3.60;2.35;;;;;;;20.60;56.86;94389.13;5074065;28;20195;-63
2022/05/22 02:29:48;;;;;;;2.90;2.45;;;;;;;20.62;55.01;94405.25;5073764;28;20192;-61
2022/05/22 02:32:14;;;;;;;3.15;2.08;;;;;;;20.60;54.69;94409.81;5075263;28;20526;-63
2022/05/22 02:34:39;;;;;;;2.95;2.40;;;;;;;20.60;54.19;94415.78;5074822;28;20180;-61
2022/05/22 02:37:05;;;;;;;3.42;1.83;;;;;;;20.55;54.08;94412.97;5056760;28;20234;-61
2022/05/22 02:39:31;;;;;;;3.47;2.13;;;;;;;20.59;53.25;94429.66;5074677;28;20211;-61
2022/05/22 02:42:04;;;;;;;4.70;1.80;;;;;;;20.54;52.70;94436.41;5073569;28;20234;-61
2022/05/22 02:44:30;;;;;;;2.35;2.03;;;;;;;20.54;52.22;94439.78;5074647;28;20196;-60
2022/05/22 02:46:55;;;;;;;3.42;2.05;;;;;;;20.53;52.11;94429.66;5074871;28;20604;-61
2022/05/22 02:49:20;;;;;;;3.08;2.30;;;;;;;20.54;51.88;94441.59;5074473;28;20665;-63
2022/05/22 02:51:46;;;;;;;2.55;1.95;;;;;;;20.53;50.97;94443.38;5074469;28;20181;-60
2022/05/22 02:54:12;;;;;;;2.70;2.03;;;;;;;20.61;50.55;94455.28;5074436;28;20276;-60
2022/05/22 02:56:37;;;;;;;2.88;1.70;;;;;;;20.58;49.86;94463.44;5074801;28;20193;-63
2022/05/22 02:59:03;;;;;;;3.15;2.25;;;;;;;20.58;49.45;94476.38;5072543;28;20205;-62
2022/05/22 03:01:28;;;;;;;2.90;2.00;;;;;;;20.61;48.96;94469.03;5073578;28;20269;-61
2022/05/22 03:03:54;;;;;;;2.75;1.70;;;;;;;20.66;48.42;94473.59;5074788;28;20188;-61
2022/05/22 03:06:38;;;;;;;1.83;1.60;;;;;;;20.62;47.11;94509.38;5074438;28;20590;-61
2022/05/22 03:09:05;;;;;;;3.45;1.60;;;;;;;20.66;47.70;94491.69;5074845;28;20238;-59
2022/05/22 03:11:30;;;;;;;2.90;1.60;;;;;;;20.69;47.00;94504.22;5072964;28;20198;-61
2022/05/22 03:13:56;;;;;;;2.78;1.85;;;;;;;20.68;46.50;94506.00;5074728;28;20201;-59
2022/05/22 03:16:21;;;;;;;3.42;1.70;;;;;;;20.66;45.98;94508.00;5074232;28;20279;-61
2022/05/22 03:18:47;;;;;;;2.33;1.70;;;;;;;20.64;43.67;94558.25;5072971;28;20631;-59
2022/05/22 03:21:13;;;;;;;2.13;1.48;;;;;;;20.69;42.75;94574.78;5072897;28;20319;-63
2022/05/22 03:23:39;;;;;;;1.50;1.40;;;;;;;20.69;43.82;94553.28;5072838;28;20205;-59
2022/05/22 03:26:04;;;;;;;2.05;1.58;;;;;;;20.69;41.50;94594.63;5074185;28;20185;-60
2022/05/22 03:28:30;;;;;;;2.80;1.75;;;;;;;20.71;40.38;94605.56;5074415;28;20200;-62
2022/05/22 03:30:55;;;;;;;2.60;1.92;;;;;;;20.77;41.08;94581.56;5073789;28;20211;-61
2022/05/22 03:33:21;;;;;;;2.42;1.50;;;;;;;20.80;41.41;94563.88;5073606;28;20254;-62
2022/05/22 03:35:46;;;;;;;4.68;1.30;;;;;;;20.77;41.17;94573.78;5073937;28;20216;-60
2022/05/22 03:38:12;;;;;;;1.40;1.30;;;;;;;20.78;40.85;94572.81;5074161;28;20205;-61
2022/05/22 03:40:47;;;;;;;1.40;1.30;;;;;;;20.82;39.75;94600.69;5073703;28;20199;-61
2022/05/22 03:43:14;;;;;;;7.72;1.52;;;;;;;20.82;38.91;94612.78;5074154;28;20232;-60
2022/05/22 03:45:42;;;;;;;4.22;1.27;;;;;;;20.87;39.29;94605.25;5073725;28;20279;-62
2022/05/22 03:48:08;;;;;;;2.95;1.42;;;;;;;20.92;38.52;94620.97;5073868;28;20225;-60
2022/05/22 03:50:33;;;;;;;3.72;1.65;;;;;;;20.88;38.83;94605.06;5072214;28;20666;-64
2022/05/22 03:52:58;;;;;;;1.30;1.20;;;;;;;20.92;38.43;94618.41;5073640;28;20666;-59
2022/05/22 03:55:24;;;;;;;3.92;1.30;;;;;;;20.98;38.18;94615.03;5073402;28;20205;-61
2022/05/22 03:57:49;;;;;;;1.80;1.10;;;;;;;21.08;38.84;94602.56;5073431;28;20280;-62
2022/05/22 04:00:18;;;;;;;2.80;1.10;;;;;;;21.03;38.47;94597.16;5072087;28;20184;-59
2022/05/22 04:02:44;;;;;;;3.20;1.35;;;;;;;21.11;37.87;94609.16;5073270;28;20670;-63
2022/05/22 04:05:10;;;;;;;2.30;1.63;;;;;;;21.28;38.41;94598.25;5071978;28;20189;-61
2022/05/22 04:07:42;;;;;;;2.97;1.10;;;;;;;21.15;38.05;94597.41;5073218;28;20205;-61
2022/05/22 04:10:08;;;;;;;1.40;1.30;;;;;;;21.27;38.67;94575.94;5073075;28;20169;-62
2022/05/22 04:12:34;;;;;;;1.67;1.48;;;;;;;21.24;38.73;94581.53;5072929;28;20231;-60
2022/05/22 04:14:59;;;;;;;4.60;1.42;;;;;;;21.15;38.46;94585.25;5073130;28;20205;-60
2022/05/22 04:17:25;;;;;;;3.50;1.60;;;;;;;21.23;39.17;94566.97;5071810;28;20185;-60
2022/05/22 04:19:50;;;;;;;3.25;2.00;;;;;;;21.35;38.85;94569.81;5073188;28;20199;-59
2022/05/22 04:22:16;;;;;;;3.63;1.60;;;;;;;21.20;38.84;94574.34;5072862;28;20175;-62
2022/05/22 04:27:26;;;;;;;2.28;1.73;;;;;;;21.25;40.24;94538.38;5073067;28;20574;-59
2022/05/22 04:29:51;;;;;;;3.10;2.10;;;;;;;21.08;39.11;94574.13;5072560;28;20189;-61
2022/05/22 04:32:17;;;;;;;2.28;1.85;;;;;;;21.05;40.28;94540.91;5071121;28;20180;-60
2022/05/22 04:34:42;;;;;;;3.75;2.00;;;;;;;21.01;40.03;94542.25;5071383;28;20351;-66
2022/05/22 04:37:08;;;;;;;3.30;2.40;;;;;;;20.93;40.39;94538.06;5071266;28;20338;-61
2022/05/22 04:39:34;;;;;;;4.50;2.05;;;;;;;20.90;40.44;94540.25;5072740;28;20271;-63
2022/05/22 04:41:59;;;;;;;2.72;1.50;;;;;;;20.90;40.35;94541.06;5071155;28;20168;-59
2022/05/22 04:44:25;;;;;;;8.73;3.22;;;;;;;20.93;40.86;94532.09;5072421;28;20709;-60
2022/05/22 04:46:50;;;;;;;3.72;2.30;;;;;;;20.93;40.59;94538.06;5071031;28;20565;-62
2022/05/22 04:49:16;;;;;;;22.75;16.48;;;;;;;20.97;41.52;94511.84;5072315;28;20201;-60
2022/05/22 04:51:41;;;;;;;8.25;4.00;;;;;;;21.15;41.19;94527.59;5072397;28;20172;-59
2022/05/22 04:54:07;;;;;;;7.57;3.40;;;;;;;21.27;41.05;94533.78;5072761;28;20196;-59
2022/05/22 04:56:32;;;;;;;3.25;2.20;;;;;;;21.20;40.77;94535.56;5072350;28;20720;-63
2022/05/22 04:58:58;;;;;;;4.57;1.83;;;;;;;21.34;40.04;94558.66;5071021;28;20207;-60
2022/05/22 05:01:23;;;;;;;4.13;1.40;;;;;;;21.26;40.22;94547.69;5072343;28;20202;-60
2022/05/22 05:03:49;;;;;;;3.40;1.83;;;;;;;21.39;40.56;94529.63;5072494;28;20204;-61
2022/05/22 05:06:15;;;;;;;6.10;1.95;;;;;;;21.32;39.78;94547.72;5070657;28;20693;-62
2022/05/22 05:08:41;;;;;;;7.65;5.18;;;;;;;21.42;40.77;94532.59;5071880;28;20193;-59
2022/05/22 05:11:11;;;;;;;5.93;4.00;;;;;;;21.41;40.96;94525.03;5072294;28;20203;-60
2022/05/22 05:13:37;;;;;;;3.17;2.53;;;;;;;21.36;41.64;94517.88;5071136;28;20224;-62
2022/05/22 05:16:11;;;;;;;4.30;1.85;;;;;;;21.48;40.62;94529.22;5070670;28;20702;-60
2022/05/22 05:18:38;;;;;;;5.03;1.88;;;;;;;21.49;41.72;94514.50;5072257;28;20686;-60
2022/05/22 05:21:10;;;;;;;3.70;1.80;;;;;;;21.58;41.47;94513.28;5070971;28;20303;-60
2022/05/22 05:23:36;;;;;;;2.25;2.05;;;;;;;21.67;41.71;94519.84;5070486;28;20204;-59
2022/05/22 05:26:02;;;;;;;3.03;1.83;;;;;;;21.62;42.98;94486.81;5072071;28;20179;-62
2022/05/22 05:28:28;;;;;;;2.63;1.60;;;;;;;21.48;41.50;94534.38;5070822;28;20284;-62
2022/05/22 05:30:53;;;;;;;2.30;1.67;;;;;;;21.43;41.97;94513.47;5071784;28;20181;-60
2022/05/22 05:33:19;;;;;;;1.50;1.08;;;;;;;21.39;41.36;94530.38;5072251;28;20273;-60
2022/05/22 05:35:45;;;;;;;3.45;1.23;;;;;;;21.40;42.32;94510.50;5071779;28;20205;-60
2022/05/22 05:38:11;;;;;;;3.78;1.33;;;;;;;21.33;41.56;94525.22;5072001;28;20572;-63
2022/05/22 05:40:38;;;;;;;2.80;1.48;;;;;;;21.28;41.98;94512.88;5071744;28;20181;-61
2022/05/22 05:43:04;;;;;;;3.33;1.30;;;;;;;21.26;42.90;94488.22;5072042;28;20241;-60
2022/05/22 05:45:29;;;;;;;3.80;1.77;;;;;;;21.20;42.48;94500.16;5071877;28;20181;-62
2022/05/22 05:47:56;;;;;;;3.85;1.73;;;;;;;21.14;45.84;94418.22;5070552;28;20205;-60
2022/05/22 05:50:22;;;;;;;3.78;1.98;;;;;;;21.29;44.70;94449.81;5071940;28;20256;-60
2022/05/22 05:52:54;;;;;;;5.85;2.20;;;;;;;21.19;43.15;94485.63;5072042;28;20281;-62
2022/05/22 05:55:20;;;;;;;2.50;1.90;;;;;;;21.14;42.36;94511.28;5071636;28;20694;-63
2022/05/22 05:57:46;;;;;;;3.22;2.30;;;;;;;21.02;42.49;94502.53;5072122;28;20224;-63
2022/05/22 06:00:16;;;;;;;4.57;2.17;;;;;;;21.01;42.49;94516.41;5071408;28;20273;-61
2022/05/22 06:02:42;;;;;;;8.55;3.75;;;;;;;21.01;42.74;94508.66;5071789;28;20274;-63
2022/05/22 06:05:10;;;;;;;5.13;2.40;;;;;;;20.99;41.98;94522.78;5071550;28;20215;-62
2022/05/22 06:07:35;;;;;;;6.15;3.75;;;;;;;21.00;41.96;94530.34;5070617;28;20716;-60
2022/05/22 06:10:01;;;;;;;7.28;3.25;;;;;;;20.98;42.61;94516.81;5071613;28;20177;-60
2022/05/22 06:12:27;;;;;;;5.65;2.92;;;;;;;21.01;42.56;94506.06;5070086;28;20267;-60
2022/05/22 06:14:52;;;;;;;3.40;2.28;;;;;;;21.07;42.37;94512.28;5071338;28;20208;-59
2022/05/22 06:17:18;;;;;;;4.88;3.20;;;;;;;21.01;42.87;94500.13;5071598;28;20189;-60
2022/05/22 06:19:56;;;;;;;3.75;1.90;;;;;;;21.05;42.74;94507.28;5072305;28;20177;-61
2022/05/22 06:22:24;;;;;;;2.85;2.15;;;;;;;21.03;42.54;94509.28;5071832;28;20212;-61
2022/05/22 06:24:50;;;;;;;4.38;1.90;;;;;;;21.15;42.43;94518.03;5071352;28;20216;-62
2022/05/22 06:27:16;;;;;;;2.53;1.40;;;;;;;21.05;42.05;94527.97;5071422;28;20228;-61
2022/05/22 06:29:43;;;;;;;3.58;1.40;;;;;;;21.02;42.92;94502.53;5071257;28;20185;-60
2022/05/22 06:32:11;;;;;;;3.60;1.55;;;;;;;21.12;43.03;94507.31;5071293;28;20545;-59
2022/05/22 06:34:41;;;;;;;3.33;1.63;;;;;;;21.10;43.57;94494.59;5072420;28;20292;-62
2022/05/22 06:37:08;;;;;;;2.72;1.40;;;;;;;21.01;43.31;94495.72;5073568;28;20630;-63
2022/05/22 06:39:50;;;;;;;3.28;1.80;;;;;;;21.06;43.75;94484.81;5074792;28;20201;-61
2022/05/22 06:42:23;;;;;;;3.45;1.70;;;;;;;21.06;44.55;94467.53;5073438;28;20254;-61
2022/05/22 06:45:00;;;;;;;2.20;1.65;;;;;;;21.05;44.44;94458.16;5073519;28;20205;-60
2022/05/22 06:47:28;;;;;;;4.38;1.48;;;;;;;20.97;44.40;94468.66;5074726;28;20264;-62
2022/05/22 06:49:55;;;;;;;3.15;1.60;;;;;;;21.09;44.70;94464.53;5074511;28;20177;-63
2022/05/22 06:52:21;;;;;;;1.75;1.40;;;;;;;21.09;43.71;94487.03;5074579;28;20230;-60
2022/05/22 06:54:47;;;;;;;4.85;1.33;;;;;;;21.03;44.56;94465.31;5074380;28;20193;-60
2022/05/22 06:57:16;;;;;;;4.07;1.75;;;;;;;21.01;44.65;94462.13;5074589;28;20260;-61
2022/05/22 06:59:43;;;;;;;4.70;2.70;;;;;;;20.89;45.19;94453.34;5074388;28;20540;-61
2022/05/22 07:02:08;;;;;;;6.40;2.03;;;;;;;20.88;45.41;94450.00;5081660;22;20221;-59
2022/05/22 07:04:34;;;;;;;2.83;1.80;;;;;;;20.85;45.24;94449.56;5074179;28;20193;-60
2022/05/22 07:07:00;;;;;;;9.25;1.80;;;;;;;20.86;45.74;94433.91;5074777;28;20181;-62
2022/05/22 07:09:25;;;;;;;3.10;2.47;;;;;;;21.00;46.28;94426.13;5074157;28;20203;-62
2022/05/22 07:11:54;;;;;;;3.03;1.40;;;;;;;21.01;45.41;94433.69;5074837;28;20228;-62
2022/05/22 07:14:21;;;;;;;5.18;1.90;;;;;;;21.05;45.06;94441.88;5074530;28;20200;-60
2022/05/22 07:16:46;;;;;;;2.70;1.55;;;;;;;21.15;45.30;94434.53;5073037;28;20220;-60
2022/05/22 07:19:12;;;;;;;6.15;2.65;;;;;;;21.26;45.61;94426.94;5073897;28;20189;-60
2022/05/22 07:21:38;;;;;;;6.45;2.38;;;;;;;21.29;45.72;94423.94;5073138;28;20185;-61
2022/05/22 07:24:04;;;;;;;2.95;1.92;;;;;;;21.25;45.02;94440.88;5074032;28;20608;-62
2022/05/22 07:26:30;;;;;;;4.18;2.50;;;;;;;21.28;45.71;94416.41;5073613;28;20298;-62
2022/05/22 07:28:59;;;;;;;5.30;2.22;;;;;;;21.32;45.97;94423.56;5073712;28;20200;-60
2022/05/22 07:31:26;;;;;;;7.57;2.92;;;;;;;21.17;45.62;94435.91;5073854;28;20244;-60
2022/05/22 07:33:52;;;;;;;6.82;3.22;;;;;;;21.30;46.63;94422.97;5073445;28;20304;-60
2022/05/22 07:36:19;;;;;;;2.60;2.33;;;;;;;21.20;45.74;94443.28;5073862;28;20690;-61
2022/05/22 07:38:44;;;;;;;5.05;2.42;;;;;;;21.40;46.23;94431.13;5073982;28;20222;-62
2022/05/22 07:41:12;;;;;;;14.88;4.60;;;;;;;21.43;45.33;94453.97;5074052;28;20688;-62
2022/05/22 07:43:38;;;;;;;12.70;4.32;;;;;;;21.47;45.75;94450.00;5073560;28;20234;-61
2022/05/22 07:46:04;;;;;;;9.80;2.95;;;;;;;21.49;46.10;94437.66;5073665;28;20647;-61
2022/05/22 07:48:30;;;;;;;10.65;2.63;;;;;;;21.48;46.88;94420.56;5073861;28;20212;-59
2022/05/22 07:50:58;;;;;;;8.70;3.70;;;;;;;21.64;47.62;94402.00;5074264;28;20259;-62
2022/05/22 07:53:24;;;;;;;5.82;2.22;;;;;;;21.68;46.81;94416.13;5073433;28;20219;-62
2022/05/22 07:55:50;;;;;;;3.88;2.35;;;;;;;21.63;46.12;94421.09;5071816;28;20217;-62
2022/05/22 07:58:21;;;;;;;7.00;3.33;;;;;;;21.75;46.49;94410.94;5073610;28;20739;-61
2022/05/22 08:00:46;;;;;;;5.88;1.90;;;;;;;21.88;46.60;94416.09;5072046;28;20215;-62
2022/05/22 08:03:14;;;;;;;2.50;2.22;;;;;;;22.05;46.88;94401.72;5073473;28;20193;-63
2022/05/22 08:05:41;;;;;;;4.20;3.03;;;;;;;22.26;50.09;94338.47;5073742;28;20177;-59
2022/05/22 08:08:07;;;;;;;11.45;1.98;;;;;;;22.29;48.16;94380.28;5073377;28;20612;-62
2022/05/22 08:10:36;;;;;;;3.10;1.83;;;;;;;22.46;52.50;94290.66;5073104;28;20189;-62
2022/05/22 08:13:04;;;;;;;3.70;2.20;;;;;;;22.13;47.14;94379.94;5073387;28;20644;-60
2022/05/22 08:15:31;;;;;;;4.10;2.35;;;;;;;22.03;47.98;94359.69;5073274;28;20215;-60
2022/05/22 08:17:58;;;;;;;3.35;2.00;;;;;;;21.95;48.38;94359.13;5073134;28;20201;-63
2022/05/22 08:20:24;;;;;;;6.03;2.13;;;;;;;21.92;47.50;94355.16;5071782;28;20828;-61
2022/05/22 08:22:55;;;;;;;7.18;2.42;;;;;;;21.98;47.02;94363.91;5080203;22;20247;-62
2022/05/22 08:25:22;;;;;;;5.20;3.03;;;;;;;21.78;48.20;94338.06;5072754;28;20255;-62
2022/05/22 08:27:48;;;;;;;4.07;2.17;;;;;;;21.77;48.53;94321.72;5073097;28;20193;-61
2022/05/22 08:30:17;;;;;;;7.70;2.85;;;;;;;21.75;49.11;94313.38;5072705;28;20188;-60
2022/05/22 08:32:44;;;;;;;5.35;2.55;;;;;;;21.82;49.61;94302.22;5072939;28;20193;-62
2022/05/22 08:35:11;;;;;;;7.53;2.03;;;;;;;21.82;49.67;94303.03;5072603;28;20590;-59
2022/05/22 08:37:37;;;;;;;3.70;1.60;;;;;;;21.90;49.17;94307.19;5072700;28;20604;-61
2022/05/22 08:40:04;;;;;;;5.00;1.80;;;;;;;21.70;49.88;94292.50;5072512;28;20243;-61
2022/05/22 08:42:41;;;;;;;5.47;2.42;;;;;;;21.94;50.25;94290.25;5072507;28;20177;-61
2022/05/22 08:45:40;;;;;;;3.17;1.88;;;;;;;22.11;50.23;94294.72;5072339;28;20177;-60
2022/05/22 08:48:14;;;;;;;9.00;4.25;;;;;;;22.27;50.63;94280.44;5070281;28;20242;-61
2022/05/22 08:50:41;;;;;;;8.02;4.68;;;;;;;22.43;56.36;94181.50;5072186;28;20170;-60
2022/05/22 08:53:16;;;;;;;5.53;3.50;;;;;;;22.50;50.31;94304.00;5072545;28;20193;-62
2022/05/22 08:58:56;;;;;;;5.38;2.30;;;;;;;22.02;52.15;94269.28;5072113;28;20741;-62
2022/05/22 09:01:41;;;;;;;7.22;2.20;;;;;;;21.90;51.43;94289.84;5053093;28;20197;-61
2022/05/22 09:04:09;;;;;;;6.03;2.72;;;;;;;21.51;52.81;94254.56;5072339;28;20208;-60
2022/05/22 09:06:58;;;;;;;2.67;2.13;;;;;;;21.32;53.48;94252.06;5071792;28;20191;-59
2022/05/22 09:09:27;;;;;;;5.15;1.85;;;;;;;21.10;53.03;94259.31;5071836;28;20205;-59
2022/05/22 09:12:08;;;;;;;6.65;1.80;;;;;;;20.92;54.85;94235.88;5072103;28;20181;-59
2022/05/22 09:14:40;;;;;;;6.30;2.08;;;;;;;20.82;55.56;94235.50;5071797;28;20278;-59
2022/05/22 09:17:28;;;;;;;2.97;2.13;;;;;;;20.66;55.80;94239.31;5072081;28;20196;-60
2022/05/22 09:19:54;;;;;;;7.50;3.50;;;;;;;20.74;56.89;94215.84;5071796;28;20161;-60
2022/05/22 09:22:42;;;;;;;6.55;2.60;;;;;;;20.72;55.93;94235.91;5071816;28;20177;-59
2022/05/22 09:25:39;;;;;;;3.63;2.15;;;;;;;20.84;56.29;94226.56;5071980;28;20172;-62
2022/05/22 09:28:17;;;;;;;8.20;3.22;;;;;;;20.91;56.15;94232.47;5071814;28;20683;-62
2022/05/22 09:30:51;;;;;;;6.70;2.88;;;;;;;20.99;56.03;94234.06;5071792;28;20630;-59
2022/05/22 09:33:57;;;;;;;4.22;2.97;;;;;;;21.08;56.69;94214.78;5071984;28;20288;-61
2022/05/22 09:36:55;;;;;;;6.72;2.55;;;;;;;21.18;55.83;94215.13;5071637;28;20207;-59
2022/05/22 09:39:39;;;;;;;5.60;2.05;;;;;;;21.29;54.89;94237.75;5071638;28;20266;-63
2022/05/22 09:42:41;;;;;;;2.17;2.00;;;;;;;21.66;54.64;94257.69;5071794;28;20208;-64
2022/05/22 09:45:28;;;;;;;6.32;2.03;;;;;;;22.00;53.15;94279.81;5078863;22;20228;-61
2022/05/22 09:48:28;;;;;;;2.30;1.98;;;;;;;22.41;52.46;94287.13;5071543;28;20686;-59
2022/05/22 09:51:09;;;;;;;5.22;2.35;;;;;;;22.44;51.73;94292.66;5071667;28;20161;-61
2022/05/22 09:53:49;;;;;;;5.45;1.80;;;;;;;22.11;49.57;94317.22;5071738;28;20232;-61
2022/05/22 09:56:24;;;;;;;3.10;1.50;;;;;;;22.08;49.33;94323.59;5071720;28;20262;-61
2022/05/22 09:59:25;;;;;;;2.65;1.50;;;;;;;22.17;48.67;94316.38;5070021;28;20204;-59
2022/05/22 10:01:55;;;;;;;9.93;1.63;;;;;;;22.39;47.08;94357.28;5071338;28;20227;-60
2022/05/22 10:04:39;;;;;;;10.45;1.70;;;;;;;23.02;47.03;94352.88;5071596;28;20201;-62
2022/05/22 10:07:16;;;;;;;6.75;1.65;;;;;;;23.48;45.38;94375.00;5071922;28;20169;-61
2022/05/22 10:10:10;;;;;;;1.85;1.52;;;;;;;23.99;45.38;94386.63;5075092;28;20177;-60
2022/05/22 10:12:55;;;;;;;3.13;1.80;;;;;;;24.03;44.38;94413.78;5073936;28;20204;-62
2022/05/22 10:15:57;;;;;;;3.17;2.42;;;;;;;24.02;45.08;94377.56;5074899;28;20208;-62
2022/05/22 10:18:37;;;;;;;4.47;1.25;;;;;;;23.92;44.90;94361.72;5075298;28;20330;-60
2022/05/22 10:21:37;;;;;;;2.50;1.85;;;;;;;24.07;45.85;94349.19;5075316;28;20177;-60
2022/05/22 10:24:21;;;;;;;2.78;2.03;;;;;;;23.87;45.33;94354.59;5073967;28;20231;-62
2022/05/22 10:27:08;;;;;;;2.88;1.60;;;;;;;24.38;44.25;94367.13;5073669;28;20651;-61
2022/05/22 10:29:54;;;;;;;3.15;1.77;;;;;;;24.72;44.35;94363.84;5075274;28;20303;-61
2022/05/22 10:32:32;;;;;;;1.60;1.48;;;;;;;24.42;43.70;94360.47;5074985;28;20642;-60
2022/05/22 10:35:07;;;;;;;7.47;1.90;;;;;;;24.22;42.65;94385.16;5075267;28;20207;-61
2022/05/22 10:37:55;;;;;;;1.48;1.38;;;;;;;24.15;43.16;94377.44;5074849;28;20654;-63
2022/05/22 10:40:24;;;;;;;4.35;1.30;;;;;;;23.71;44.38;94331.03;5072947;28;20200;-62
2022/05/22 10:42:55;;;;;;;2.22;1.58;;;;;;;23.57;45.46;94306.22;5074394;28;20639;-62
2022/05/22 10:45:37;;;;;;;5.30;1.80;;;;;;;23.58;45.78;94300.00;5073542;28;20193;-61
2022/05/22 10:48:31;;;;;;;7.03;2.00;;;;;;;23.67;46.82;94276.16;5074384;28;20576;-61
2022/05/22 10:51:20;;;;;;;3.88;1.83;;;;;;;23.49;46.27;94293.53;5070975;28;20250;-63
2022/05/22 10:53:45;;;;;;;4.45;1.55;;;;;;;23.35;46.56;94279.94;5074636;28;20212;-61
2022/05/22 10:56:24;;;;;;;3.00;1.60;;;;;;;23.39;46.72;94280.28;5074261;28;20588;-61
2022/05/22 10:58:59;;;;;;;1.98;1.77;;;;;;;23.24;47.20;94268.44;5074556;28;20208;-62
2022/05/22 11:01:30;;;;;;;4.93;1.70;;;;;;;23.22;46.88;94274.84;5074344;28;20164;-62
2022/05/22 11:04:09;;;;;;;10.27;1.90;;;;;;;22.97;47.18;94274.09;5072904;28;20314;-61
2022/05/22 11:06:38;;;;;;;7.47;2.70;;;;;;;22.97;47.28;94256.75;5074424;28;20646;-62
2022/05/22 11:09:05;;;;;;;5.38;2.13;;;;;;;23.22;48.09;94247.13;5074447;28;20288;-62
2022/05/22 11:11:34;;;;;;;2.42;1.95;;;;;;;23.63;46.76;94269.03;5074326;28;20563;-63
2022/05/22 11:14:13;;;;;;;5.22;1.67;;;;;;;24.18;45.74;94291.25;5074232;28;20220;-62
2022/05/22 11:16:39;;;;;;;6.75;1.92;;;;;;;24.62;44.99;94301.22;5073953;28;20204;-62
2022/05/22 11:19:20;;;;;;;5.43;1.92;;;;;;;24.74;43.99;94337.66;5072701;28;20219;-62
2022/05/22 11:22:00;;;;;;;4.80;1.50;;;;;;;24.70;44.33;94316.47;5073428;28;20219;-61
2022/05/22 11:24:50;;;;;;;4.40;1.50;;;;;;;24.47;45.18;94300.03;5074109;28;20227;-62
2022/05/22 11:27:37;;;;;;;2.13;1.70;;;;;;;24.36;45.61;94280.78;5073812;28;20168;-61
2022/05/22 11:30:23;;;;;;;5.55;1.90;;;;;;;24.84;45.32;94283.28;5072510;28;20193;-60
2022/05/22 11:32:51;;;;;;;4.97;1.85;;;;;;;25.04;45.11;94298.53;5073751;28;20253;-62
2022/05/22 11:35:38;;;;;;;3.60;1.75;;;;;;;25.00;45.38;94285.19;5073416;28;20220;-61
2022/05/22 11:38:29;;;;;;;7.65;1.98;;;;;;;25.98;45.11;94287.72;5072281;28;20266;-62
2022/05/22 11:41:33;;;;;;;2.97;1.60;;;;;;;25.90;42.88;94329.78;5072240;28;20558;-62
2022/05/22 11:44:23;;;;;;;2.20;1.48;;;;;;;25.97;43.10;94309.59;5073332;28;20565;-64
2022/05/22 11:47:22;;;;;;;2.28;1.60;;;;;;;25.28;44.97;94266.25;5073649;28;20176;-61
2022/05/22 11:50:02;;;;;;;2.55;1.75;;;;;;;24.70;45.22;94264.47;5073968;28;20177;-62
2022/05/22 11:55:44;;;;;;;3.83;1.90;;;;;;;24.16;45.47;94269.91;5073297;28;20207;-60
2022/05/22 11:58:44;;;;;;;3.92;1.67;;;;;;;24.16;45.69;94264.72;5076998;22;20342;-59
2022/05/22 12:01:45;;;;;;;4.13;1.63;;;;;;;23.80;45.59;94252.59;5055147;28;20189;-60
2022/05/22 12:04:11;;;;;;;1.50;1.40;;;;;;;23.43;46.52;94245.91;5073556;28;20254;-63